createdAt,value
2019-02-05T00:02:26.227Z,102099.94
2019-02-05T00:06:31.687Z,102091.24
2019-02-05T00:10:37.108Z,102103.38
2019-02-05T00:14:42.588Z,102102.85
2019-02-05T00:18:48.102Z,102110.02
2019-02-05T00:22:53.825Z,102105.71
2019-02-05T00:26:59.170Z,102120.33
2019-02-05T00:31:05.373Z,102120.97
2019-02-05T00:35:10.997Z,102119.85
2019-02-05T00:39:16.399Z,102124.55
2019-02-05T00:43:22.139Z,102127.66
2019-02-05T00:47:27.700Z,102129.94
2019-02-05T00:51:33.410Z,102119.73
2019-02-05T00:55:38.724Z,102137.49
2019-02-05T00:59:44.157Z,102133.85
2019-02-05T01:03:49.569Z,102133.02
2019-02-05T01:07:55.585Z,102137.94
2019-02-05T01:12:01.452Z,102129.16
2019-02-05T01:16:07.632Z,102129.55
2019-02-05T01:20:16.541Z,102130.08
2019-02-05T01:24:21.962Z,102138.75
2019-02-05T01:28:27.380Z,102139.47
2019-02-05T01:32:32.781Z,102140.69
2019-02-05T01:36:38.238Z,102135.22
2019-02-05T01:40:43.654Z,102143.49
2019-02-05T01:44:49.200Z,102153.33
2019-02-05T01:48:54.885Z,102149.22
2019-02-05T01:53:03.773Z,102153.66
2019-02-05T01:57:09.248Z,102154.55
2019-02-05T02:01:14.983Z,102161.83
2019-02-05T02:05:20.477Z,102157.52
2019-02-05T02:09:26.080Z,102163.08
2019-02-05T02:13:31.506Z,102158.38
2019-02-05T02:17:37.296Z,102152.69
2019-02-05T02:21:42.733Z,102154.08
2019-02-05T02:25:48.058Z,102152.69
2019-02-05T02:29:53.824Z,102153.72
2019-02-05T02:33:59.235Z,102143.41
2019-02-05T02:38:05.310Z,102153.19
2019-02-05T02:42:10.965Z,102152.69
2019-02-05T02:46:17.034Z,102147.36
2019-02-05T02:50:22.801Z,102147.64
2019-02-05T02:54:28.243Z,102155.30
2019-02-05T02:58:33.496Z,102145.25
2019-02-05T03:02:39.349Z,102147.75
2019-02-05T03:06:44.680Z,102147.47
2019-02-05T03:10:50.121Z,102162.72
2019-02-05T03:14:55.879Z,102166.08
2019-02-05T03:19:01.311Z,102160.86
2019-02-05T03:23:07.135Z,102162.86
2019-02-05T03:27:17.847Z,102156.91
2019-02-05T03:31:19.803Z,102161.11
2019-02-05T03:35:25.512Z,102154.16
2019-02-05T03:39:30.851Z,102160.47
2019-02-05T03:43:37.985Z,102153.30
2019-02-05T03:47:43.778Z,102163.97
2019-02-05T03:52:07.040Z,102168.53
2019-02-05T03:57:14.908Z,102170.28
2019-02-05T04:02:04.310Z,102175.97
2019-02-05T04:07:04.281Z,102175.61
2019-02-05T04:12:01.875Z,102177.80
2019-02-05T04:17:20.892Z,102174.14
2019-02-05T04:22:20.731Z,102165.58
2019-02-05T04:27:43.852Z,102163.61
2019-02-05T04:32:25.773Z,102167.69
2019-02-05T04:37:25.804Z,102172.67
2019-02-05T04:41:54.788Z,102174.36
2019-02-05T04:46:57.992Z,102191.73
2019-02-05T04:52:06.415Z,102192.48
2019-02-05T04:56:46.691Z,102196.56
2019-02-05T05:02:01.420Z,102200.02
2019-02-05T05:07:01.379Z,102208.64
2019-02-05T05:11:07.231Z,102203.88
2019-02-05T05:15:14.081Z,102203.16
2019-02-05T05:19:20.303Z,102201.41
2019-02-05T05:23:26.033Z,102205.88
2019-02-05T05:27:32.022Z,102192.37
2019-02-05T05:31:37.446Z,102197.81
2019-02-05T05:35:44.541Z,102192.59
2019-02-05T05:39:50.053Z,102195.34
2019-02-05T05:43:55.472Z,102203.91
2019-02-05T05:48:00.961Z,102205.88
2019-02-05T05:52:06.740Z,102209.52
2019-02-05T05:56:12.514Z,102219.41
2019-02-05T06:00:20.161Z,102218.36
2019-02-05T06:04:25.789Z,102218.25
2019-02-05T06:08:31.238Z,102220.62
2019-02-05T06:12:36.759Z,102228.11
2019-02-05T06:16:42.181Z,102212.38
2019-02-05T06:20:47.953Z,102225.67
2019-02-05T06:24:53.333Z,102219.61
2019-02-05T06:28:58.785Z,102230.26
2019-02-05T06:33:04.254Z,102240.77
2019-02-05T06:37:10.057Z,102254.77
2019-02-05T06:41:15.622Z,102254.66
2019-02-05T06:45:21.053Z,102248.83
2019-02-05T06:49:26.498Z,102265.45
2019-02-05T06:53:31.918Z,102258.75
2019-02-05T06:57:37.335Z,102264.09
2019-02-05T07:01:43.539Z,102264.20
2019-02-05T07:05:49.312Z,102271.12
2019-02-05T07:09:54.809Z,102270.00
2019-02-05T07:14:00.295Z,102273.98
2019-02-05T07:18:06.045Z,102285.38
2019-02-05T07:22:12.971Z,102281.69
2019-02-05T07:26:18.326Z,102287.38
2019-02-05T07:30:25.246Z,102287.13
2019-02-05T07:34:30.961Z,102292.47
2019-02-05T07:38:36.425Z,102293.12
2019-02-05T07:42:42.163Z,102296.09
2019-02-05T07:46:47.754Z,102300.57
2019-02-05T07:50:53.190Z,102307.09
2019-02-05T07:54:58.747Z,102317.78
2019-02-05T07:59:10.444Z,102320.68
2019-02-05T08:03:11.598Z,102325.13
2019-02-05T08:07:17.068Z,102333.08
2019-02-05T08:11:22.751Z,102333.86
2019-02-05T08:15:31.146Z,102337.59
2019-02-05T08:19:36.553Z,102339.23
2019-02-05T08:23:42.008Z,102343.50
2019-02-05T08:27:47.447Z,102335.96
2019-02-05T08:31:53.088Z,102346.78
2019-02-05T08:35:58.542Z,102334.30
2019-02-05T08:40:05.796Z,102335.33
2019-02-05T08:44:11.254Z,102339.52
2019-02-05T08:48:16.812Z,102345.95
2019-02-05T08:52:22.238Z,102361.98
2019-02-05T08:56:27.781Z,102363.73
2019-02-05T09:00:35.930Z,102366.27
2019-02-05T09:04:41.320Z,102364.67
2019-02-05T09:08:46.764Z,102359.50
2019-02-05T09:12:52.230Z,102359.94
2019-02-05T09:16:57.739Z,102369.13
2019-02-05T09:21:03.184Z,102375.66
2019-02-05T09:25:09.905Z,102377.03
2019-02-05T09:29:15.349Z,102390.11
2019-02-05T09:33:21.087Z,102386.16
2019-02-05T09:37:26.859Z,102376.58
2019-02-05T09:41:32.310Z,102380.39
2019-02-05T09:45:37.856Z,102384.62
2019-02-05T09:49:43.287Z,102396.16
2019-02-05T09:53:48.679Z,102401.90
2019-02-05T09:57:54.101Z,102398.03
2019-02-05T10:01:59.886Z,102395.21
2019-02-05T10:06:05.331Z,102399.66
2019-02-05T10:10:13.503Z,102404.66
2019-02-05T10:14:18.893Z,102412.86
2019-02-05T10:18:24.749Z,102419.04
2019-02-05T10:22:34.603Z,102423.31
2019-02-05T10:26:40.154Z,102432.92
2019-02-05T10:30:46.997Z,102434.41
2019-02-05T10:34:52.450Z,102431.39
2019-02-05T10:38:58.178Z,102432.28
2019-02-05T10:43:03.798Z,102433.80
2019-02-05T10:47:09.692Z,102434.69
2019-02-05T10:51:15.209Z,102429.44
2019-02-05T10:55:21.036Z,102418.04
2019-02-05T10:59:26.451Z,102437.59
2019-02-05T11:03:32.287Z,102422.41
2019-02-05T11:07:38.048Z,102426.82
2019-02-05T11:11:43.653Z,102412.72
2019-02-05T11:15:49.019Z,102414.62
2019-02-05T11:19:54.461Z,102420.03
2019-02-05T11:23:59.921Z,102412.84
2019-02-05T11:28:05.584Z,102408.15
2019-02-05T11:32:11.036Z,102399.47
2019-02-05T11:36:16.515Z,102395.64
2019-02-05T11:40:28.826Z,102400.09
2019-02-05T11:44:34.198Z,102394.58
2019-02-05T11:48:39.943Z,102397.71
2019-02-05T11:52:45.486Z,102394.50
2019-02-05T11:56:51.306Z,102396.95
2019-02-05T12:01:02.027Z,102407.28
2019-02-05T12:05:08.283Z,102410.85
2019-02-05T12:09:24.403Z,102416.55
2019-02-05T12:13:29.871Z,102413.08
2019-02-05T12:17:35.587Z,102410.15
2019-02-05T12:21:41.076Z,102399.22
2019-02-05T12:25:47.083Z,102404.93
2019-02-05T12:29:53.106Z,102404.05
2019-02-05T12:33:58.829Z,102404.56
2019-02-05T12:38:04.942Z,102404.56
2019-02-05T12:42:10.398Z,102402.82
2019-02-05T12:46:15.763Z,102402.67
2019-02-05T12:50:24.672Z,102399.84
2019-02-05T12:54:30.018Z,102393.28
2019-02-05T12:58:35.485Z,102386.55
2019-02-05T13:02:40.939Z,102392.16
2019-02-05T13:06:46.396Z,102386.56
2019-02-05T13:10:53.510Z,102385.05
2019-02-05T13:14:58.970Z,102382.70
2019-02-05T13:19:04.415Z,102376.13
2019-02-05T13:23:10.667Z,102392.77
2019-02-05T13:27:16.074Z,102380.59
2019-02-05T13:31:21.911Z,102383.59
2019-02-05T13:35:27.858Z,102379.70
2019-02-05T13:39:33.486Z,102381.45
2019-02-05T13:43:39.223Z,102384.95
2019-02-05T13:47:44.650Z,102379.98
2019-02-05T13:51:50.110Z,102387.06
2019-02-05T13:55:56.214Z,102380.59
2019-02-05T14:00:01.973Z,102379.46
2019-02-05T14:04:07.507Z,102380.96
2019-02-05T14:08:13.222Z,102387.56
2019-02-05T14:12:21.713Z,102392.39
2019-02-05T14:16:26.042Z,102392.52
2019-02-05T14:20:31.529Z,102385.42
2019-02-05T14:24:40.209Z,102389.16
2019-02-05T14:28:45.684Z,102386.91
2019-02-05T14:32:51.172Z,102389.03
2019-02-05T14:36:56.876Z,102385.66
2019-02-05T14:41:02.334Z,102388.66
2019-02-05T14:45:09.744Z,102388.63
2019-02-05T14:49:15.276Z,102382.67
2019-02-05T14:53:20.751Z,102380.27
2019-02-05T14:57:26.295Z,102380.72
2019-02-05T15:01:42.473Z,102376.23
2019-02-05T15:05:39.811Z,102378.55
2019-02-05T15:09:45.278Z,102378.75
2019-02-05T15:13:50.762Z,102374.19
2019-02-05T15:17:56.331Z,102369.98
2019-02-05T15:22:01.868Z,102374.98
2019-02-05T15:26:07.337Z,102361.13
2019-02-05T15:30:23.963Z,102364.80
2019-02-05T15:34:30.225Z,102354.95
2019-02-05T15:38:36.101Z,102350.94
2019-02-05T15:42:41.578Z,102365.75
2019-02-05T15:46:47.023Z,102368.18
2019-02-05T15:50:52.862Z,102371.86
2019-02-05T15:54:58.694Z,102370.15
2019-02-05T15:59:04.128Z,102369.06
2019-02-05T16:03:10.089Z,102368.69
2019-02-05T16:07:15.596Z,102368.84
2019-02-05T16:11:21.100Z,102372.44
2019-02-05T16:15:26.539Z,102376.54
2019-02-05T16:19:32.099Z,102363.50
2019-02-05T16:23:37.609Z,102365.34
2019-02-05T16:27:43.389Z,102357.56
2019-02-05T16:31:49.499Z,102356.56
2019-02-05T16:35:55.019Z,102364.30
2019-02-05T16:40:00.633Z,102361.81
2019-02-05T16:44:06.358Z,102363.44
2019-02-05T16:48:11.863Z,102362.95
2019-02-05T16:52:17.392Z,102366.41
2019-02-05T16:56:23.172Z,102373.76
2019-02-05T17:00:33.483Z,102372.39
2019-02-05T17:04:39.245Z,102369.77
2019-02-05T17:08:44.688Z,102371.38
2019-02-05T17:12:50.219Z,102382.55
2019-02-05T17:16:55.655Z,102384.30
2019-02-05T17:21:01.122Z,102387.00
2019-02-05T17:25:09.713Z,102386.49
2019-02-05T17:29:15.109Z,102384.17
2019-02-05T17:33:20.773Z,102386.02
2019-02-05T17:37:26.276Z,102377.19
2019-02-05T17:41:31.715Z,102382.41
2019-02-05T17:45:39.893Z,102382.91
2019-02-05T17:49:45.318Z,102378.55
2019-02-05T17:53:51.310Z,102375.59
2019-02-05T17:57:56.888Z,102367.38
2019-02-05T18:02:02.255Z,102353.73
2019-02-05T18:06:08.892Z,102360.20
2019-02-05T18:10:17.075Z,102352.11
2019-02-05T18:14:22.536Z,102355.84
2019-02-05T18:18:27.943Z,102356.09
2019-02-05T18:22:33.497Z,102353.73
2019-02-05T18:26:39.170Z,102355.72
2019-02-05T18:30:44.621Z,102348.78
2019-02-05T18:34:50.450Z,102348.79
2019-02-05T18:38:56.255Z,102345.91
2019-02-05T18:43:01.785Z,102335.22
2019-02-05T18:47:07.337Z,102334.61
2019-02-05T18:51:12.923Z,102331.98
2019-02-05T18:55:18.612Z,102331.73
2019-02-05T18:59:24.051Z,102324.16
2019-02-05T19:03:29.848Z,102319.33
2019-02-05T19:07:35.223Z,102315.84
2019-02-05T19:11:40.880Z,102313.61
2019-02-05T19:15:46.350Z,102310.63
2019-02-05T19:19:52.268Z,102304.40
2019-02-05T19:24:06.987Z,102298.56
2019-02-05T19:28:19.095Z,102291.61
2019-02-05T19:32:28.231Z,102288.74
2019-02-05T19:36:33.970Z,102296.54
2019-02-05T19:40:39.425Z,102291.52
2019-02-05T19:44:51.433Z,102298.94
2019-02-05T19:49:05.059Z,102300.64
2019-02-05T19:53:10.750Z,102299.63
2019-02-05T19:57:16.224Z,102302.94
2019-02-05T20:01:22.055Z,102308.33
2019-02-05T20:05:27.539Z,102298.22
2019-02-05T20:09:32.965Z,102302.48
2019-02-05T20:13:40.358Z,102299.63
2019-02-05T20:17:45.954Z,102301.80
2019-02-05T20:21:51.407Z,102300.83
2019-02-05T20:25:57.108Z,102301.09
2019-02-05T20:30:02.708Z,102293.09
2019-02-05T20:34:08.635Z,102289.30
2019-02-05T20:38:14.101Z,102302.05
2019-02-05T20:42:19.574Z,102306.33
2019-02-05T20:46:25.563Z,102312.77
2019-02-05T20:50:30.817Z,102308.82
2019-02-05T20:54:36.241Z,102306.25
2019-02-05T20:58:41.728Z,102308.86
2019-02-05T21:02:47.233Z,102310.82
2019-02-05T21:06:53.076Z,102311.14
2019-02-05T21:10:58.565Z,102316.33
2019-02-05T21:15:05.234Z,102320.52
2019-02-05T21:19:10.944Z,102310.09
2019-02-05T21:23:16.413Z,102306.83
2019-02-05T21:27:21.945Z,102315.31
2019-02-05T21:31:27.403Z,102310.64
2019-02-05T21:35:32.937Z,102303.44
2019-02-05T21:39:38.936Z,102309.40
2019-02-05T21:43:44.514Z,102301.53
2019-02-05T21:47:49.963Z,102312.63
2019-02-05T21:51:55.351Z,102307.64
2019-02-05T21:56:01.174Z,102302.51
2019-02-05T22:00:33.326Z,102296.47
2019-02-05T22:04:38.792Z,102297.17
2019-02-05T22:08:44.182Z,102287.86
2019-02-05T22:12:49.587Z,102296.53
2019-02-05T22:16:55.254Z,102286.97
2019-02-05T22:21:02.576Z,102302.20
2019-02-05T22:25:13.888Z,102297.16
2019-02-05T22:29:19.184Z,102297.69
2019-02-05T22:33:24.544Z,102297.48
2019-02-05T22:37:31.453Z,102294.30
2019-02-05T22:41:36.860Z,102288.10
2019-02-05T22:45:42.412Z,102284.05
2019-02-05T22:49:47.835Z,102293.88
2019-02-05T22:53:53.271Z,102293.85
2019-02-05T22:57:59.404Z,102287.06
2019-02-05T23:02:06.890Z,102283.01
2019-02-05T23:06:57.260Z,102288.53
2019-02-05T23:11:45.515Z,102293.95
2019-02-05T23:15:52.366Z,102282.21
2019-02-05T23:19:57.928Z,102282.70
2019-02-05T23:24:03.367Z,102283.45
2019-02-05T23:28:09.072Z,102283.48
2019-02-05T23:32:14.483Z,102274.05
2019-02-05T23:36:19.986Z,102279.40
2019-02-05T23:40:25.677Z,102274.59
2019-02-05T23:44:31.240Z,102262.47
2019-02-05T23:48:38.159Z,102262.83
2019-02-05T23:52:43.898Z,102264.84
2019-02-05T23:56:49.637Z,102265.96
